createdAt,value
2022-12-25T00:00:23.427Z,90
2022-12-25T00:01:24.699Z,90
2022-12-25T00:02:26.692Z,90
2022-12-25T00:03:28.949Z,90
2022-12-25T00:04:30.427Z,90
2022-12-25T00:05:31.564Z,90
2022-12-25T00:06:32.747Z,91
2022-12-25T00:07:33.882Z,91
2022-12-25T00:08:34.889Z,91
2022-12-25T00:09:36.048Z,91
2022-12-25T00:10:46.505Z,91
2022-12-25T00:11:47.618Z,91
2022-12-25T00:12:48.762Z,91
2022-12-25T00:13:49.898Z,91
2022-12-25T00:14:51.070Z,91
2022-12-25T00:15:52.675Z,91
2022-12-25T00:16:53.925Z,91
2022-12-25T00:17:55.309Z,91
2022-12-25T00:18:56.737Z,91
2022-12-25T00:19:57.580Z,91
2022-12-25T00:20:58.753Z,91
2022-12-25T00:21:59.945Z,91
2022-12-25T00:23:01.061Z,91
2022-12-25T00:24:02.477Z,91
2022-12-25T00:25:03.837Z,91
2022-12-25T00:26:04.948Z,90
2022-12-25T00:27:06.358Z,90
2022-12-25T00:28:07.540Z,90
2022-12-25T00:29:08.958Z,91
2022-12-25T00:30:10.173Z,90
2022-12-25T00:31:11.605Z,90
2022-12-25T00:32:12.514Z,90
2022-12-25T00:33:13.658Z,90
2022-12-25T00:34:15.072Z,90
2022-12-25T00:35:16.503Z,90
2022-12-25T00:36:17.695Z,90
2022-12-25T00:37:19.112Z,90
2022-12-25T00:38:20.295Z,90
2022-12-25T00:39:21.431Z,90
2022-12-25T00:40:22.606Z,90
2022-12-25T00:41:23.788Z,90
2022-12-25T00:42:25.214Z,90
2022-12-25T00:43:26.343Z,90
2022-12-25T00:44:27.800Z,90
2022-12-25T00:45:29.069Z,90
2022-12-25T00:46:30.743Z,90
2022-12-25T00:47:31.635Z,90
2022-12-25T00:48:33.029Z,90
2022-12-25T00:49:34.156Z,90
2022-12-25T00:50:35.298Z,90
2022-12-25T00:51:36.545Z,90
2022-12-25T00:52:37.479Z,90
2022-12-25T00:53:38.914Z,90
2022-12-25T00:54:40.112Z,90
2022-12-25T00:55:41.316Z,90
2022-12-25T00:56:42.505Z,90
2022-12-25T00:57:43.642Z,90
2022-12-25T00:58:45.060Z,90
2022-12-25T00:59:46.248Z,90
2022-12-25T01:00:47.823Z,90
2022-12-25T01:01:49.943Z,90
2022-12-25T01:02:51.565Z,90
2022-12-25T01:03:53.177Z,90
2022-12-25T01:04:54.320Z,89
2022-12-25T01:05:55.453Z,89
2022-12-25T01:06:56.590Z,90
2022-12-25T01:07:58.003Z,90
2022-12-25T01:08:59.430Z,90
2022-12-25T01:10:00.878Z,90
2022-12-25T01:11:02.310Z,90
2022-12-25T01:12:03.421Z,90
2022-12-25T01:13:04.855Z,89
2022-12-25T01:14:05.809Z,89
2022-12-25T01:15:07.238Z,89
2022-12-25T01:16:08.897Z,89
2022-12-25T01:17:10.367Z,90
2022-12-25T01:18:13.689Z,90
2022-12-25T01:19:14.820Z,90
2022-12-25T01:20:15.962Z,89
2022-12-25T01:21:17.109Z,89
2022-12-25T01:22:18.290Z,89
2022-12-25T01:23:19.307Z,89
2022-12-25T01:24:20.727Z,89
2022-12-25T01:25:22.145Z,89
2022-12-25T01:26:23.589Z,90
2022-12-25T01:27:24.723Z,90
2022-12-25T01:28:25.852Z,90
2022-12-25T01:29:26.996Z,90
2022-12-25T01:30:28.405Z,90
2022-12-25T01:31:29.890Z,90
2022-12-25T01:32:31.161Z,90
2022-12-25T01:33:32.580Z,90
2022-12-25T01:34:33.520Z,90
2022-12-25T01:35:34.656Z,90
2022-12-25T01:36:36.080Z,90
2022-12-25T01:37:36.968Z,90
2022-12-25T01:38:38.373Z,90
2022-12-25T01:39:39.788Z,90
2022-12-25T01:40:40.665Z,89
2022-12-25T01:41:41.811Z,89
2022-12-25T01:42:42.990Z,90
2022-12-25T01:43:44.175Z,90
2022-12-25T01:44:44.798Z,90
2022-12-25T01:45:46.135Z,90
2022-12-25T01:46:47.444Z,90
2022-12-25T01:47:48.855Z,90
2022-12-25T01:48:50.279Z,90
2022-12-25T01:49:51.465Z,90
2022-12-25T01:50:52.612Z,90
2022-12-25T01:51:54.017Z,90
2022-12-25T01:52:55.433Z,90
2022-12-25T01:53:56.566Z,90
2022-12-25T01:54:58.002Z,90
2022-12-25T01:55:59.429Z,90
2022-12-25T01:57:00.871Z,90
2022-12-25T01:58:02.275Z,90
2022-12-25T01:59:03.457Z,90
2022-12-25T02:00:04.875Z,91
2022-12-25T02:01:06.295Z,91
2022-12-25T02:02:08.446Z,91
2022-12-25T02:03:09.947Z,91
2022-12-25T02:04:11.356Z,91
2022-12-25T02:05:12.533Z,91
2022-12-25T02:06:13.669Z,90
2022-12-25T02:07:14.850Z,90
2022-12-25T02:08:16.035Z,90
2022-12-25T02:09:17.456Z,90
2022-12-25T02:10:18.586Z,90
2022-12-25T02:11:19.483Z,90
2022-12-25T02:12:20.650Z,90
2022-12-25T02:13:22.044Z,90
2022-12-25T02:14:23.451Z,90
2022-12-25T02:15:24.881Z,90
2022-12-25T02:16:25.971Z,90
2022-12-25T02:17:27.627Z,91
2022-12-25T02:18:29.132Z,91
2022-12-25T02:19:30.543Z,91
2022-12-25T02:20:31.680Z,91
2022-12-25T02:21:32.821Z,91
2022-12-25T02:22:34.004Z,90
2022-12-25T02:23:35.444Z,90
2022-12-25T02:24:36.850Z,90
2022-12-25T02:25:38.252Z,90
2022-12-25T02:26:39.432Z,90
2022-12-25T02:27:40.366Z,90
2022-12-25T02:28:46.501Z,90
2022-12-25T02:29:47.661Z,90
2022-12-25T02:30:49.047Z,90
2022-12-25T02:31:50.698Z,90
2022-12-25T02:32:52.034Z,90
2022-12-25T02:33:53.453Z,91
2022-12-25T02:34:55.761Z,91
2022-12-25T02:35:57.185Z,91
2022-12-25T02:36:57.827Z,91
2022-12-25T02:37:59.235Z,91
2022-12-25T02:39:00.437Z,91
2022-12-25T02:40:01.557Z,91
2022-12-25T02:41:02.743Z,91
2022-12-25T02:42:04.156Z,91
2022-12-25T02:43:05.617Z,91
2022-12-25T02:44:06.812Z,91
2022-12-25T02:45:10.949Z,91
2022-12-25T02:46:12.561Z,91
2022-12-25T02:47:14.071Z,91
2022-12-25T02:48:15.250Z,91
2022-12-25T02:49:16.726Z,91
2022-12-25T02:50:18.186Z,91
2022-12-25T02:51:19.794Z,91
2022-12-25T02:52:20.923Z,91
2022-12-25T02:53:22.518Z,91
2022-12-25T02:54:23.613Z,90
2022-12-25T02:55:25.028Z,90
2022-12-25T02:56:26.209Z,90
2022-12-25T02:57:27.625Z,90
2022-12-25T02:58:28.561Z,90
2022-12-25T02:59:29.667Z,90
2022-12-25T03:00:30.804Z,91
2022-12-25T03:01:32.862Z,91
2022-12-25T03:02:34.525Z,91
2022-12-25T03:03:36.217Z,91
2022-12-25T03:04:37.320Z,91
2022-12-25T03:05:38.740Z,91
2022-12-25T03:06:40.157Z,91
2022-12-25T03:07:41.350Z,91
2022-12-25T03:08:42.792Z,91
2022-12-25T03:09:44.188Z,91
2022-12-25T03:10:45.603Z,91
2022-12-25T03:11:46.228Z,91
2022-12-25T03:12:47.666Z,91
2022-12-25T03:13:49.090Z,91
2022-12-25T03:14:50.480Z,91
2022-12-25T03:15:51.670Z,91
2022-12-25T03:16:53.039Z,91
2022-12-25T03:17:54.258Z,92
2022-12-25T03:18:55.385Z,92
2022-12-25T03:19:56.528Z,92
2022-12-25T03:20:57.428Z,92
2022-12-25T03:21:58.847Z,92
2022-12-25T03:23:00.405Z,92
2022-12-25T03:24:01.818Z,92
2022-12-25T03:25:02.678Z,92
2022-12-25T03:26:04.084Z,93
2022-12-25T03:27:05.511Z,93
2022-12-25T03:28:06.472Z,93
2022-12-25T03:29:08.309Z,93
2022-12-25T03:30:09.419Z,93
2022-12-25T03:31:11.119Z,93
2022-12-25T03:32:12.457Z,93
2022-12-25T03:33:46.315Z,93
2022-12-25T03:34:47.788Z,93
2022-12-25T03:35:48.961Z,93
2022-12-25T03:36:50.381Z,93
2022-12-25T03:37:51.561Z,93
2022-12-25T03:38:55.089Z,93
2022-12-25T03:39:56.511Z,93
2022-12-25T03:40:57.924Z,93
2022-12-25T03:41:59.108Z,93
2022-12-25T03:43:00.274Z,93
2022-12-25T03:44:01.706Z,93
2022-12-25T03:45:03.150Z,94
2022-12-25T03:46:04.711Z,94
2022-12-25T03:47:06.107Z,94
2022-12-25T03:48:07.300Z,94
2022-12-25T03:49:08.704Z,94
2022-12-25T03:50:10.137Z,94
2022-12-25T03:51:11.261Z,94
2022-12-25T03:52:12.161Z,94
2022-12-25T03:53:13.064Z,94
2022-12-25T03:54:13.922Z,94
2022-12-25T03:55:15.114Z,94
2022-12-25T03:56:16.576Z,94
2022-12-25T03:57:18.478Z,94
2022-12-25T03:58:19.692Z,94
2022-12-25T03:59:24.727Z,94
2022-12-25T04:00:26.157Z,94
2022-12-25T04:01:27.712Z,94
2022-12-25T04:02:29.761Z,94
2022-12-25T04:03:31.728Z,94
2022-12-25T04:04:32.975Z,94
2022-12-25T04:05:34.159Z,94
2022-12-25T04:06:35.061Z,94
2022-12-25T04:07:36.194Z,94
2022-12-25T04:08:37.629Z,94
2022-12-25T04:09:38.744Z,94
2022-12-25T04:10:40.161Z,94
2022-12-25T04:11:41.301Z,94
2022-12-25T04:12:42.443Z,94
2022-12-25T04:13:43.628Z,94
2022-12-25T04:14:44.484Z,94
2022-12-25T04:15:46.032Z,94
2022-12-25T04:16:47.472Z,94
2022-12-25T04:17:48.375Z,94
2022-12-25T04:18:49.296Z,94
2022-12-25T04:19:50.710Z,94
2022-12-25T04:20:51.847Z,94
2022-12-25T04:21:53.270Z,94
2022-12-25T04:22:54.676Z,94
2022-12-25T04:23:56.092Z,94
2022-12-25T04:24:57.512Z,94
2022-12-25T04:25:58.924Z,94
2022-12-25T04:27:00.113Z,94
2022-12-25T04:28:01.517Z,94
2022-12-25T04:29:02.651Z,94
2022-12-25T04:30:03.552Z,94
2022-12-25T04:31:05.550Z,94
2022-12-25T04:32:06.566Z,94
2022-12-25T04:33:07.697Z,94
2022-12-25T04:34:09.119Z,94
2022-12-25T04:35:10.297Z,94
2022-12-25T04:36:11.438Z,94
2022-12-25T04:37:12.854Z,94
2022-12-25T04:38:14.270Z,94
2022-12-25T04:39:15.678Z,95
2022-12-25T04:40:16.820Z,95
2022-12-25T04:41:18.008Z,95
2022-12-25T04:42:19.143Z,95
2022-12-25T04:43:20.557Z,95
2022-12-25T04:44:21.746Z,95
2022-12-25T04:45:23.154Z,95
2022-12-25T04:46:24.673Z,95
2022-12-25T04:47:25.812Z,95
2022-12-25T04:48:27.226Z,95
2022-12-25T04:49:28.655Z,95
2022-12-25T04:50:30.055Z,95
2022-12-25T04:51:31.233Z,96
2022-12-25T12:26:44.788Z,86
2022-12-25T12:27:45.693Z,87
2022-12-25T12:29:07.511Z,87.9
2022-12-25T12:29:25.688Z,88.6
2022-12-25T12:30:31.412Z,88.2
2022-12-25T12:31:33.068Z,88.1
2022-12-25T12:32:34.463Z,88
2022-12-25T12:33:35.868Z,87.9
2022-12-25T12:34:36.766Z,87.8
2022-12-25T12:35:38.193Z,87.8
2022-12-25T12:36:39.615Z,87.8
2022-12-25T12:37:40.526Z,87.8
2022-12-25T12:38:41.743Z,87.9
2022-12-25T12:39:43.149Z,87.9
2022-12-25T12:40:44.690Z,87.9
2022-12-25T12:41:46.106Z,88
2022-12-25T12:42:47.001Z,88
2022-12-25T12:43:48.144Z,88
2022-12-25T12:44:49.300Z,88
2022-12-25T12:45:50.435Z,88
2022-12-25T12:46:51.563Z,88.1
2022-12-25T12:47:52.702Z,88.1
2022-12-25T12:48:53.837Z,88.2
2022-12-25T12:49:55.255Z,88.3
2022-12-25T12:50:56.673Z,88.4
2022-12-25T12:51:57.807Z,88.5
2022-12-25T12:52:59.241Z,88.6
2022-12-25T12:54:00.640Z,88.6
2022-12-25T12:55:01.829Z,88.7
2022-12-25T12:56:02.712Z,88.8
2022-12-25T12:57:03.354Z,88.9
2022-12-25T12:58:04.486Z,88.9
2022-12-25T12:59:05.351Z,89
2022-12-25T13:00:11.879Z,89
2022-12-25T13:01:12.858Z,89
2022-12-25T13:02:14.547Z,89.1
2022-12-25T13:03:15.911Z,89.1
2022-12-25T13:04:16.736Z,89.2
2022-12-25T13:05:17.632Z,89.2
2022-12-25T13:06:18.807Z,89.3
2022-12-25T13:07:20.222Z,89.3
2022-12-25T13:08:21.400Z,89.4
2022-12-25T13:09:22.540Z,89.4
2022-12-25T13:10:23.968Z,89.5
2022-12-25T13:11:25.108Z,89.5
2022-12-25T13:12:26.010Z,89.5
2022-12-25T13:13:27.421Z,89.6
2022-12-25T13:14:28.284Z,89.6
2022-12-25T13:15:29.692Z,89.6
2022-12-25T13:16:31.164Z,89.7
2022-12-25T13:17:32.392Z,89.7
2022-12-25T13:18:33.520Z,89.7
2022-12-25T13:19:34.722Z,89.8
2022-12-25T13:20:35.833Z,89.8
2022-12-25T13:21:36.975Z,89.8
2022-12-25T13:22:38.386Z,89.8
2022-12-25T13:23:39.281Z,89.8
2022-12-25T13:24:40.696Z,89.8
2022-12-25T13:25:41.827Z,89.8
2022-12-25T13:26:43.286Z,89.8
2022-12-25T13:27:44.465Z,89.8
2022-12-25T13:28:45.323Z,89.9
2022-12-25T13:29:46.456Z,89.9
2022-12-25T13:30:47.353Z,90
2022-12-25T13:31:48.721Z,90
2022-12-25T13:32:50.212Z,90
2022-12-25T13:33:51.448Z,90
2022-12-25T13:34:52.355Z,90
2022-12-25T13:35:53.264Z,90
2022-12-25T13:36:54.443Z,90
2022-12-25T13:37:55.598Z,90
2022-12-25T13:38:56.996Z,90.1
2022-12-25T13:39:58.128Z,90.1
2022-12-25T13:40:59.538Z,90.1
2022-12-25T13:42:00.583Z,90.1
2022-12-25T13:43:01.686Z,90.1
2022-12-25T13:44:02.870Z,90.1
2022-12-25T13:45:03.992Z,90.2
2022-12-25T13:46:05.259Z,90.2
2022-12-25T13:47:06.575Z,90.2
2022-12-25T13:48:07.988Z,90.2
2022-12-25T13:49:09.163Z,90.2
2022-12-25T13:50:12.061Z,90.2
2022-12-25T13:51:12.914Z,90.2
2022-12-25T13:52:13.809Z,90.2
2022-12-25T13:53:14.948Z,90.2
2022-12-25T13:54:16.095Z,90.3
2022-12-25T13:55:17.503Z,90.2
2022-12-25T13:56:18.921Z,90.2
2022-12-25T13:57:20.073Z,90.3
2022-12-25T13:58:21.186Z,90.3
2022-12-25T13:59:22.068Z,90.3
2022-12-25T14:00:23.198Z,90.4
2022-12-25T14:01:25.098Z,90.5
2022-12-25T14:02:26.954Z,90.5
2022-12-25T14:03:28.093Z,90.6
2022-12-25T14:04:28.946Z,90.6
2022-12-25T14:05:41.597Z,90.7
2022-12-25T14:06:43.273Z,90.8
2022-12-25T14:07:44.601Z,90.8
2022-12-25T14:08:46.019Z,90.8
2022-12-25T14:09:47.155Z,90.9
2022-12-25T14:10:48.311Z,90.9
2022-12-25T14:11:49.506Z,90.9
2022-12-25T14:12:50.963Z,90.9
2022-12-25T14:13:51.787Z,90.9
2022-12-25T14:14:53.199Z,91
2022-12-25T14:15:54.333Z,91.1
2022-12-25T14:16:55.948Z,91.1
2022-12-25T14:17:57.187Z,91.1
2022-12-25T14:18:58.087Z,91.2
2022-12-25T14:20:09.084Z,91.3
2022-12-25T14:21:10.747Z,91.4
2022-12-25T14:22:11.815Z,91.5
2022-12-25T14:23:13.239Z,91.6
2022-12-25T14:24:14.647Z,91.6
2022-12-25T14:25:16.151Z,91.6
2022-12-25T14:26:17.338Z,91.6
2022-12-25T14:27:18.756Z,91.6
2022-12-25T14:28:19.682Z,91.6
2022-12-25T14:29:28.880Z,91.7
2022-12-25T14:30:30.086Z,91.8
2022-12-25T14:31:31.018Z,91.8
2022-12-25T14:32:32.141Z,91.9
2022-12-25T14:33:33.268Z,92
2022-12-25T14:34:34.692Z,92.1
2022-12-25T14:35:35.819Z,92.2
2022-12-25T14:36:37.245Z,92.2
2022-12-25T14:37:38.654Z,92.3
2022-12-25T14:38:40.074Z,92.3
2022-12-25T14:39:40.981Z,92.3
2022-12-25T14:40:42.396Z,92.3
2022-12-25T14:41:43.577Z,92.4
2022-12-25T14:42:44.809Z,92.5
2022-12-25T14:43:46.248Z,92.6
2022-12-25T14:44:47.588Z,92.7
2022-12-25T14:45:48.831Z,92.7
2022-12-25T14:46:50.023Z,92.8
2022-12-25T14:47:51.154Z,92.9
2022-12-25T14:48:52.067Z,92.9
2022-12-25T14:49:53.477Z,93
2022-12-25T14:50:55.265Z,93
2022-12-25T14:51:56.380Z,93
2022-12-25T14:52:57.560Z,93.1
2022-12-25T14:53:58.691Z,93.1
2022-12-25T14:55:00.104Z,93.2
2022-12-25T14:56:00.959Z,93.2
2022-12-25T14:57:01.852Z,93.3
2022-12-25T14:58:03.003Z,93.3
2022-12-25T14:59:04.181Z,93.3
2022-12-25T15:00:05.696Z,93.3
2022-12-25T15:01:07.320Z,93.4
2022-12-25T15:02:15.875Z,93.4
2022-12-25T15:03:17.631Z,93.4
2022-12-25T15:04:18.913Z,93.4
2022-12-25T15:05:20.092Z,93.4
2022-12-25T15:06:21.445Z,93.4
2022-12-25T15:07:22.901Z,93.4
2022-12-25T15:08:24.033Z,93.5
2022-12-25T15:09:24.948Z,93.5
2022-12-25T15:11:03.530Z,93.5
2022-12-25T15:12:05.025Z,93.6
2022-12-25T15:13:06.171Z,93.7
2022-12-25T15:14:06.818Z,93.7
2022-12-25T15:15:08.204Z,93.7
2022-12-25T15:16:09.909Z,93.7
2022-12-25T15:17:11.206Z,93.7
2022-12-25T15:18:12.342Z,93.8
2022-12-25T15:19:13.757Z,93.8
2022-12-25T15:20:15.171Z,93.8
2022-12-25T15:21:16.326Z,93.8
2022-12-25T15:22:17.228Z,93.8
2022-12-25T15:23:21.657Z,93.8
2022-12-25T15:24:22.568Z,93.8
2022-12-25T15:25:23.789Z,93.8
2022-12-25T15:26:25.167Z,93.8
2022-12-25T15:27:26.597Z,93.8
2022-12-25T15:28:27.985Z,93.8
2022-12-25T15:30:11.185Z,93.8
2022-12-25T15:31:12.343Z,93.9
2022-12-25T15:32:13.763Z,93.9
2022-12-25T15:33:14.905Z,94
2022-12-25T15:34:16.321Z,94
2022-12-25T15:35:17.743Z,94
2022-12-25T15:36:18.880Z,94
2022-12-25T15:37:20.273Z,94
2022-12-25T15:38:21.654Z,94
2022-12-25T15:39:22.781Z,94.1
2022-12-25T15:40:23.958Z,94.1
2022-12-25T15:41:25.096Z,94.1
2022-12-25T15:42:26.249Z,94.1
2022-12-25T15:43:42.168Z,94.1
2022-12-25T15:44:43.071Z,94.3
2022-12-25T15:45:43.949Z,94.3
2022-12-25T15:46:44.965Z,94.3
2022-12-25T15:47:45.963Z,94.3
2022-12-25T15:48:47.094Z,94.4
2022-12-25T15:49:47.712Z,94.4
2022-12-25T15:50:48.343Z,94.4
2022-12-25T15:51:49.474Z,94.4
2022-12-25T15:52:50.605Z,94.4
2022-12-25T15:53:51.464Z,94.4
2022-12-25T15:54:52.365Z,94.3
2022-12-25T15:55:53.503Z,94.3
2022-12-25T15:56:54.360Z,94.3
2022-12-25T15:57:55.494Z,94.3
2022-12-25T15:58:56.665Z,94.3
2022-12-25T15:59:57.833Z,94.3
2022-12-25T16:00:59.033Z,94.3
2022-12-25T16:02:01.167Z,94.3
2022-12-25T16:03:03.394Z,94.4
2022-12-25T16:04:04.979Z,94.4
2022-12-25T16:05:11.278Z,94.3
2022-12-25T16:06:12.695Z,94.3
2022-12-25T16:07:14.115Z,94.3
2022-12-25T16:08:15.292Z,94.4
2022-12-25T16:09:16.713Z,94.3
2022-12-25T16:10:18.123Z,94.3
2022-12-25T16:11:19.026Z,94.4
2022-12-25T16:12:20.440Z,94.4
2022-12-25T16:13:21.347Z,94.4
2022-12-25T16:14:22.874Z,94.4
2022-12-25T16:15:24.307Z,94.4
2022-12-25T16:16:25.954Z,94.4
2022-12-25T16:17:27.120Z,94.4
2022-12-25T16:18:28.391Z,94.4
2022-12-25T16:19:29.807Z,94.3
2022-12-25T16:20:31.215Z,94.3
2022-12-25T16:21:32.631Z,94.3
2022-12-25T16:22:33.773Z,94.3
2022-12-25T16:23:34.903Z,94.4
2022-12-25T16:24:36.081Z,94.4
2022-12-25T16:25:37.525Z,94.4
2022-12-25T16:26:38.648Z,94.3
2022-12-25T16:27:39.820Z,94.3
2022-12-25T16:28:40.967Z,94.3
2022-12-25T16:29:41.828Z,94.2
2022-12-25T16:30:42.680Z,94.3
2022-12-25T16:31:43.588Z,94.3
2022-12-25T16:32:44.832Z,94.3
2022-12-25T16:33:45.694Z,94.4
2022-12-25T16:34:46.824Z,94.4
2022-12-25T16:35:48.004Z,94.4
2022-12-25T16:36:49.413Z,94.4
2022-12-25T16:37:50.311Z,94.4
2022-12-25T16:38:51.207Z,94.4
2022-12-25T16:39:52.114Z,94.4
2022-12-25T16:40:53.012Z,94.4
2022-12-25T16:41:53.629Z,94.4
2022-12-25T16:42:54.523Z,94.4
2022-12-25T16:43:55.670Z,94.5
2022-12-25T16:44:56.859Z,94.5
2022-12-25T16:45:57.824Z,94.6
2022-12-25T16:46:59.277Z,94.7
2022-12-25T16:48:00.307Z,94.7
2022-12-25T16:49:01.204Z,94.7
2022-12-25T16:50:02.080Z,94.8
2022-12-25T16:51:03.250Z,94.9
2022-12-25T16:52:04.165Z,95
2022-12-25T16:53:05.071Z,95
2022-12-25T16:54:06.200Z,95.1
2022-12-25T16:55:07.382Z,95.2
2022-12-25T16:56:08.521Z,95.3
2022-12-25T16:57:09.427Z,95.3
2022-12-25T16:58:10.327Z,95.4
2022-12-25T16:59:11.248Z,95.4
2022-12-25T17:00:12.471Z,95.5
2022-12-25T17:01:13.575Z,95.5
2022-12-25T17:02:15.238Z,95.5
2022-12-25T17:03:17.040Z,95.6
2022-12-25T17:04:18.225Z,95.6
2022-12-25T17:05:19.646Z,95.6
2022-12-25T17:06:20.273Z,95.6
2022-12-25T17:07:21.175Z,95.6
2022-12-25T17:08:22.026Z,95.6
2022-12-25T17:09:22.655Z,95.6
2022-12-25T17:10:23.281Z,95.6
2022-12-25T17:11:24.417Z,95.6
2022-12-25T17:12:25.313Z,95.6
2022-12-25T17:13:26.733Z,95.6
2022-12-25T17:14:27.359Z,95.6
2022-12-25T17:15:28.495Z,95.6
2022-12-25T17:16:29.702Z,95.5
2022-12-25T17:17:30.746Z,95.5
2022-12-25T17:18:31.368Z,95.5
2022-12-25T17:19:32.268Z,95.5
2022-12-25T17:20:33.682Z,95.5
2022-12-25T17:21:34.951Z,95.5
2022-12-25T17:22:35.848Z,95.5
2022-12-25T17:23:36.705Z,95.5
2022-12-25T17:24:37.377Z,95.5
2022-12-25T17:25:38.359Z,95.5
2022-12-25T17:26:39.491Z,95.5
2022-12-25T17:27:40.359Z,95.5
2022-12-25T17:28:41.482Z,95.4
2022-12-25T17:29:42.625Z,95.4
2022-12-25T17:30:43.519Z,95.5
2022-12-25T17:31:44.515Z,95.5
2022-12-25T17:32:45.628Z,95.5
2022-12-25T17:33:46.456Z,95.5
2022-12-25T17:34:47.633Z,95.5
2022-12-25T17:35:48.487Z,95.5
2022-12-25T17:36:49.383Z,95.5
2022-12-25T17:37:50.277Z,95.4
2022-12-25T17:38:51.456Z,95.4
2022-12-25T17:39:52.077Z,95.4
2022-12-25T17:40:53.207Z,95.4
2022-12-25T17:41:54.344Z,95.4
2022-12-25T17:42:55.480Z,95.4
2022-12-25T17:43:56.614Z,95.4
2022-12-25T17:44:57.508Z,95.3
2022-12-25T17:45:58.928Z,95.3
2022-12-25T17:46:59.990Z,95.3
2022-12-25T17:48:00.943Z,95.2
2022-12-25T17:49:02.413Z,95.2
2022-12-25T17:50:03.570Z,95.2
2022-12-25T17:51:04.472Z,95.2
2022-12-25T17:52:05.609Z,95.1
2022-12-25T17:53:06.515Z,95.1
2022-12-25T17:54:07.131Z,95.1
2022-12-25T17:55:08.027Z,95.1
2022-12-25T17:56:08.987Z,95.1
2022-12-25T17:57:09.918Z,95.1
2022-12-25T17:58:10.816Z,95.1
2022-12-25T17:59:11.947Z,95.1
2022-12-25T18:00:13.365Z,95
2022-12-25T18:01:14.780Z,95
2022-12-25T18:02:16.169Z,95
2022-12-25T18:03:18.411Z,95
2022-12-25T18:04:19.569Z,95.1
2022-12-25T18:05:20.431Z,95
2022-12-25T18:06:21.303Z,95
2022-12-25T18:07:22.221Z,95
2022-12-25T18:08:23.360Z,94.9
2022-12-25T18:09:24.778Z,94.9
2022-12-25T18:10:25.907Z,94.9
2022-12-25T18:11:26.523Z,94.9
2022-12-25T18:12:27.426Z,94.9
2022-12-25T18:13:28.566Z,94.9
2022-12-25T18:14:29.743Z,94.9
2022-12-25T18:15:30.646Z,95
2022-12-25T18:16:31.655Z,95
2022-12-25T18:17:32.883Z,95
2022-12-25T18:18:33.812Z,94.9
2022-12-25T18:19:34.709Z,94.9
2022-12-25T18:20:40.806Z,94.9
2022-12-25T18:21:41.699Z,94.9
2022-12-25T18:22:42.842Z,94.9
2022-12-25T18:23:43.744Z,94.8
2022-12-25T18:24:44.676Z,94.8
2022-12-25T18:25:45.745Z,94.8
2022-12-25T18:26:46.643Z,94.7
2022-12-25T18:27:48.059Z,94.7
2022-12-25T18:28:48.693Z,94.6
2022-12-25T18:29:49.588Z,94.6
2022-12-25T18:30:50.732Z,94.5
2022-12-25T18:31:52.298Z,94.5
2022-12-25T18:32:53.750Z,94.4
2022-12-25T18:33:54.681Z,94.4
2022-12-25T18:34:56.070Z,94.4
2022-12-25T18:35:57.208Z,94.4
2022-12-25T18:36:58.112Z,94.4
2022-12-25T18:37:59.249Z,94.3
2022-12-25T18:38:59.879Z,94.3
2022-12-25T18:40:00.813Z,94.3
2022-12-25T18:41:01.951Z,94.2
2022-12-25T18:42:03.078Z,94.1
2022-12-25T18:43:04.779Z,94.1
2022-12-25T18:44:05.680Z,94.1
2022-12-25T18:45:06.821Z,94.1
2022-12-25T18:46:08.020Z,94
2022-12-25T18:47:08.960Z,94.1
2022-12-25T18:48:09.865Z,94.1
2022-12-25T18:49:10.512Z,94
2022-12-25T18:50:11.130Z,94
2022-12-25T18:51:12.549Z,94
2022-12-25T18:52:52.246Z,93.9
2022-12-25T18:53:53.415Z,94
2022-12-25T18:54:54.267Z,94
2022-12-25T18:55:55.404Z,94
2022-12-25T18:56:56.305Z,93.9
2022-12-25T18:57:57.478Z,93.9
2022-12-25T18:58:58.616Z,93.8
2022-12-25T18:59:59.513Z,93.8
2022-12-25T19:01:00.732Z,93.8
2022-12-25T19:02:02.360Z,93.7
2022-12-25T19:03:04.006Z,93.7
2022-12-25T19:04:06.602Z,93.7
2022-12-25T19:05:07.531Z,93.7
2022-12-25T19:06:08.920Z,93.7
2022-12-25T19:07:10.333Z,93.7
2022-12-25T19:08:10.952Z,93.6
2022-12-25T19:09:12.134Z,93.6
2022-12-25T19:10:13.033Z,93.5
2022-12-25T19:11:13.898Z,93.5
2022-12-25T19:12:14.745Z,93.5
2022-12-25T19:13:15.374Z,93.4
2022-12-25T19:14:16.784Z,93.3
2022-12-25T19:15:17.400Z,93.3
2022-12-25T19:16:18.475Z,93.2
2022-12-25T19:17:19.768Z,93.1
2022-12-25T19:18:20.669Z,93.1
2022-12-25T19:19:21.721Z,93
2022-12-25T19:20:22.657Z,93
2022-12-25T19:21:23.498Z,92.9
2022-12-25T19:22:24.138Z,92.9
2022-12-25T19:23:25.070Z,92.8
2022-12-25T19:24:26.257Z,92.7
2022-12-25T19:25:27.161Z,92.6
2022-12-25T19:26:28.068Z,92.6
2022-12-25T19:27:29.250Z,92.5
2022-12-25T19:28:30.809Z,92.5
2022-12-25T19:29:31.663Z,92.4
2022-12-25T19:30:32.803Z,92.3
2022-12-25T19:31:34.342Z,92.2
2022-12-25T19:32:35.297Z,92.2
2022-12-25T19:33:36.203Z,92.1
2022-12-25T19:34:37.373Z,92.1
2022-12-25T19:35:38.575Z,92
2022-12-25T19:36:39.753Z,92
2022-12-25T19:37:40.888Z,92
2022-12-25T19:38:41.786Z,91.9
2022-12-25T19:39:42.665Z,91.9
2022-12-25T19:40:43.287Z,91.9
2022-12-25T19:41:43.918Z,91.8
2022-12-25T19:42:44.541Z,91.8
2022-12-25T19:43:45.685Z,91.7
2022-12-25T19:44:46.820Z,91.7
2022-12-25T19:45:48.264Z,91.6
2022-12-25T19:46:49.388Z,91.6
2022-12-25T19:47:50.296Z,91.5
2022-12-25T19:48:51.219Z,91.5
2022-12-25T19:50:02.560Z,91.5
2022-12-25T19:51:04.081Z,91.5
2022-12-25T19:52:05.193Z,91.4
2022-12-25T19:53:06.610Z,91.4
2022-12-25T19:54:07.510Z,91.4
2022-12-25T19:55:08.369Z,91.3
2022-12-25T19:56:09.225Z,91.3
2022-12-25T19:57:10.080Z,91.3
2022-12-25T19:58:10.950Z,91.2
2022-12-25T19:59:12.218Z,91.1
2022-12-25T20:00:13.779Z,91.1
2022-12-25T20:01:14.526Z,91.1
2022-12-25T20:02:16.056Z,91
2022-12-25T20:03:17.336Z,91
2022-12-25T20:04:18.543Z,91
2022-12-25T20:05:19.467Z,90.9
2022-12-25T20:06:20.782Z,90.9
2022-12-25T20:07:21.397Z,90.8
2022-12-25T20:08:22.140Z,90.8
2022-12-25T20:09:23.324Z,90.8
2022-12-25T20:10:24.465Z,90.7
2022-12-25T20:11:25.376Z,90.7
2022-12-25T20:12:26.511Z,90.7
2022-12-25T20:13:27.649Z,90.7
2022-12-25T20:14:28.556Z,90.7
2022-12-25T20:15:29.175Z,90.7
2022-12-25T20:16:30.141Z,90.7
2022-12-25T20:17:31.096Z,90.7
2022-12-25T20:18:31.720Z,90.7
2022-12-25T20:19:32.901Z,90.7
2022-12-25T20:20:34.046Z,90.6
2022-12-25T20:21:34.686Z,90.6
2022-12-25T20:22:35.583Z,90.5
2022-12-25T20:23:36.478Z,90.5
2022-12-25T20:24:37.338Z,90.4
2022-12-25T20:25:37.956Z,90.4
2022-12-25T20:26:39.122Z,90.4
2022-12-25T20:27:40.316Z,90.3
2022-12-25T20:28:41.222Z,90.3
2022-12-25T20:29:42.414Z,90.3
2022-12-25T20:30:43.274Z,90.2
2022-12-25T20:31:44.414Z,90.2
2022-12-25T20:32:51.119Z,90.2
2022-12-25T20:33:52.315Z,90.2
2022-12-25T20:34:53.173Z,90.1
2022-12-25T20:35:54.075Z,90.1
2022-12-25T20:36:54.951Z,90
2022-12-25T20:37:55.577Z,90
2022-12-25T20:38:56.478Z,89.9
2022-12-25T20:39:57.093Z,89.8
2022-12-25T20:41:30.179Z,89.8
2022-12-25T20:42:31.171Z,89.9
2022-12-25T20:43:31.819Z,89.8
2022-12-25T20:44:32.678Z,89.8
2022-12-25T20:45:34.249Z,89.8
2022-12-25T20:46:35.689Z,89.7
2022-12-25T20:47:36.632Z,89.6
2022-12-25T20:48:37.770Z,89.6
2022-12-25T20:49:38.946Z,89.5
2022-12-25T20:50:39.809Z,89.4
2022-12-25T20:51:41.227Z,89.3
2022-12-25T20:52:41.874Z,89.2
2022-12-25T20:53:42.699Z,89.1
2022-12-25T20:54:43.504Z,89.1
2022-12-25T20:55:44.350Z,89
2022-12-25T20:56:45.478Z,89
2022-12-25T20:57:46.664Z,88.9
2022-12-25T20:58:47.528Z,88.8
2022-12-25T20:59:48.656Z,88.8
2022-12-25T21:00:50.007Z,88.7
2022-12-25T21:01:52.055Z,88.7
2022-12-25T21:02:53.798Z,88.7
2022-12-25T21:03:55.117Z,88.7
2022-12-25T21:04:56.196Z,88.6
2022-12-25T21:05:57.334Z,88.6
2022-12-25T21:06:58.223Z,88.6
2022-12-25T21:07:59.672Z,88.6
2022-12-25T21:09:00.319Z,88.6
2022-12-25T21:10:00.954Z,88.6
2022-12-25T21:11:02.133Z,88.5
2022-12-25T21:12:03.306Z,88.4
2022-12-25T21:13:04.493Z,88.4
2022-12-25T21:14:05.391Z,88.3
2022-12-25T21:15:16.471Z,88.2
2022-12-25T21:16:17.608Z,88.2
2022-12-25T21:17:18.496Z,88.1
2022-12-25T21:18:19.725Z,88
2022-12-25T21:19:20.348Z,87.9
2022-12-25T21:20:21.489Z,87.9
2022-12-25T21:21:22.400Z,87.9
2022-12-25T21:22:23.252Z,87.9
2022-12-25T21:23:24.172Z,87.9
2022-12-25T21:24:25.564Z,87.9
2022-12-25T21:25:26.703Z,87.9
2022-12-25T21:26:27.615Z,87.8
2022-12-25T21:27:28.747Z,87.8
2022-12-25T21:28:29.651Z,87.8
2022-12-25T21:29:30.551Z,87.8
2022-12-25T21:30:31.853Z,87.7
2022-12-25T21:31:33.113Z,87.6
2022-12-25T21:32:34.026Z,87.6
2022-12-25T21:33:34.887Z,87.6
2022-12-25T21:34:35.747Z,87.5
2022-12-25T21:35:36.655Z,87.4
2022-12-25T21:36:37.788Z,87.4